Time;durP1;ratioP1;P1;durP2;ratioP2;P2;SDS_P1;SDS_P2;PMS_P1;PMS_P2;Temp;Humidity;BMP_temperature;BMP_pressure;BME280_temperature;BME280_humidity;BME280_pressure;Samples;Min_cycle;Max_cycle;Signal;HPM_P1;HPM_P2
2022/10/03 00:00:32;;;;;;;20.00;2.42;;;;;;;9.88;93.03;101295.69;7400765;19;20018;-66
2022/10/03 00:03:32;;;;;;;12.90;2.63;;;;;;;9.88;93.22;101297.44;7397475;19;20027;-66
2022/10/03 00:06:14;;;;;;;16.95;2.70;;;;;;;9.83;92.91;101289.63;7399345;19;20011;-67
2022/10/03 00:09:10;;;;;;;12.73;2.88;;;;;;;9.84;93.30;101301.81;7397484;19;20089;-67
2022/10/03 00:11:55;;;;;;;16.10;2.17;;;;;;;9.85;92.97;101298.34;7400474;19;20019;-69
2022/10/03 00:14:42;;;;;;;15.05;2.42;;;;;;;9.79;93.58;101308.88;7399844;19;20031;-67
2022/10/03 00:17:18;;;;;;;16.25;2.53;;;;;;;9.81;93.49;101317.59;7398628;19;20498;-68
2022/10/03 00:19:59;;;;;;;11.80;1.98;;;;;;;9.82;93.24;101308.84;7399358;19;20018;-68
2022/10/03 00:22:38;;;;;;;16.63;2.95;;;;;;;9.82;93.53;101313.22;7399855;19;20379;-68
2022/10/03 00:25:26;;;;;;;14.30;2.72;;;;;;;9.80;93.94;101312.38;7397791;19;20022;-70
2022/10/03 00:28:15;;;;;;;19.67;3.75;;;;;;;9.78;93.76;101317.59;7397157;19;20035;-69
2022/10/03 00:31:06;;;;;;;15.98;2.63;;;;;;;9.77;93.82;101322.00;7396966;19;20015;-69
2022/10/03 00:33:46;;;;;;;16.80;2.75;;;;;;;9.78;93.83;101317.59;7398522;19;20010;-69
2022/10/03 00:36:23;;;;;;;15.13;2.00;;;;;;;9.77;93.82;101321.13;7397426;19;20023;-69
2022/10/03 00:39:26;;;;;;;22.65;2.50;;;;;;;9.77;93.90;101315.91;7396812;19;20023;-69
2022/10/03 00:42:27;;;;;;;17.67;2.85;;;;;;;9.75;94.21;101325.50;7398183;19;20014;-67
2022/10/03 00:45:43;;;;;;;9.35;2.40;;;;;;;9.73;94.19;101320.28;7396523;19;20423;-68
2022/10/03 00:48:52;;;;;;;16.73;2.17;;;;;;;9.75;94.42;101322.91;7392857;19;20552;-68
2022/10/03 00:51:38;;;;;;;17.45;2.85;;;;;;;9.74;94.47;101332.50;7398907;19;20077;-69
2022/10/03 00:54:26;;;;;;;17.73;2.53;;;;;;;9.77;94.33;101336.88;7399030;19;20031;-69
2022/10/03 00:57:28;;;;;;;18.05;3.20;;;;;;;9.78;94.59;101338.56;7398657;19;20027;-68
2022/10/03 01:00:15;;;;;;;18.13;3.00;;;;;;;9.81;94.53;101341.19;7398017;19;20510;-68
2022/10/03 01:03:13;;;;;;;15.98;2.80;;;;;;;9.85;94.41;101340.25;7396170;19;20018;-68
2022/10/03 01:05:57;;;;;;;12.50;2.95;;;;;;;9.88;94.33;101353.34;7398367;19;20036;-68
2022/10/03 01:08:45;;;;;;;14.13;2.27;;;;;;;9.92;94.44;101341.06;7396124;19;20516;-68
2022/10/03 01:11:28;;;;;;;16.65;2.78;;;;;;;9.97;94.17;101336.69;7398739;19;20019;-68
2022/10/03 01:14:11;;;;;;;16.52;2.53;;;;;;;10.00;94.13;101338.41;7399099;19;20031;-68
2022/10/03 01:16:48;;;;;;;17.63;3.38;;;;;;;10.07;93.70;101350.53;7395534;19;20504;-68
2022/10/03 01:19:37;;;;;;;13.75;2.42;;;;;;;10.09;93.90;101348.78;7398265;19;20014;-68
2022/10/03 01:22:26;;;;;;;18.23;3.13;;;;;;;10.14;93.53;101352.22;7396066;19;20040;-68
2022/10/03 01:25:01;;;;;;;16.38;3.20;;;;;;;10.17;93.50;101341.69;7395553;19;20524;-67
2022/10/03 01:30:21;;;;;;;9.15;2.58;;;;;;;10.22;93.28;101353.03;7395809;19;20499;-68
2022/10/03 01:30:39;;;;;;;17.38;2.83;;;;;;;10.24;93.07;101369.59;7396862;19;20021;-68
2022/10/03 01:33:14;;;;;;;13.65;2.88;;;;;;;10.27;92.95;101351.22;7395203;19;20429;-68
2022/10/03 01:35:54;;;;;;;11.50;2.88;;;;;;;10.32;92.65;101352.91;7396925;19;20425;-67
2022/10/03 01:38:30;;;;;;;12.98;2.58;;;;;;;10.34;92.47;101362.50;7395981;19;20019;-67
2022/10/03 01:41:05;;;;;;;17.27;2.63;;;;;;;10.36;92.38;101352.03;7394053;19;20484;-67
2022/10/03 01:43:39;;;;;;;17.38;2.67;;;;;;;10.37;92.35;101359.00;7396702;19;20603;-67
2022/10/03 01:46:18;;;;;;;15.85;3.20;;;;;;;10.40;92.08;101364.22;7397489;19;20019;-67
2022/10/03 01:48:56;;;;;;;15.18;3.28;;;;;;;10.38;91.86;101361.63;7395018;19;20033;-67
2022/10/03 01:51:31;;;;;;;12.45;2.97;;;;;;;10.40;91.86;101372.97;7397259;19;20024;-66
2022/10/03 01:54:15;;;;;;;13.73;3.47;;;;;;;10.40;91.70;101372.97;7396726;19;20414;-67
2022/10/03 01:56:54;;;;;;;14.00;3.08;;;;;;;10.43;91.70;101374.69;7395317;19;20178;-67
2022/10/03 01:59:33;;;;;;;17.58;2.63;;;;;;;10.43;91.52;101372.06;7396216;19;20010;-67
2022/10/03 02:02:11;;;;;;;20.15;3.05;;;;;;;10.44;91.50;101373.81;7396207;19;20015;-67
2022/10/03 02:04:50;;;;;;;14.55;2.53;;;;;;;10.45;91.23;101386.03;7396132;19;20082;-68
2022/10/03 02:07:27;;;;;;;14.48;2.70;;;;;;;10.46;91.14;101384.28;7394781;19;20026;-67
2022/10/03 02:10:08;;;;;;;15.18;2.40;;;;;;;10.45;91.07;101383.41;7396721;19;20074;-67
2022/10/03 02:12:41;;;;;;;12.65;3.22;;;;;;;10.48;90.97;101382.53;7395805;19;20018;-67
2022/10/03 02:15:17;;;;;;;10.38;2.75;;;;;;;10.48;90.98;101391.25;7396613;19;20070;-67
2022/10/03 02:17:56;;;;;;;10.68;2.42;;;;;;;10.50;91.07;101394.72;7395437;19;20039;-67
2022/10/03 02:20:36;;;;;;;15.60;2.97;;;;;;;10.51;90.89;101399.06;7396358;19;20023;-67
2022/10/03 02:23:23;;;;;;;13.82;2.40;;;;;;;10.53;91.02;101393.81;7396306;19;20040;-67
2022/10/03 02:26:04;;;;;;;18.92;2.63;;;;;;;10.53;90.79;101397.31;7396022;19;20015;-67
2022/10/03 02:29:14;;;;;;;19.30;3.00;;;;;;;10.54;90.74;101387.66;7394056;19;20035;-68
2022/10/03 02:32:13;;;;;;;12.15;2.92;;;;;;;10.56;90.69;101391.16;7391784;19;20018;-67
2022/10/03 02:35:13;;;;;;;14.00;3.05;;;;;;;10.53;90.55;101394.69;7395048;19;20018;-67
2022/10/03 02:37:56;;;;;;;14.00;3.60;;;;;;;10.53;90.47;101392.06;7394209;19;20019;-67
2022/10/03 02:41:04;;;;;;;17.15;3.88;;;;;;;10.56;90.38;101396.41;7395811;19;20023;-67
2022/10/03 02:44:13;;;;;;;11.05;2.80;;;;;;;10.58;90.14;101402.50;7394021;19;20485;-66
2022/10/03 02:47:20;;;;;;;10.75;2.58;;;;;;;10.58;89.42;101406.00;7394942;19;20082;-67
2022/10/03 02:50:19;;;;;;;10.70;2.70;;;;;;;10.57;89.38;101393.75;7394707;19;20510;-67
2022/10/03 02:53:10;;;;;;;17.48;2.47;;;;;;;10.59;89.33;101404.25;7396278;19;20383;-67
2022/10/03 02:56:05;;;;;;;17.45;2.88;;;;;;;10.58;88.82;101411.25;7402235;19;20014;-67
2022/10/03 02:59:02;;;;;;;14.85;3.10;;;;;;;10.59;88.60;101405.13;7400379;19;20014;-67
2022/10/03 03:02:02;;;;;;;17.92;3.35;;;;;;;10.59;88.55;101412.13;7402114;19;20011;-67
2022/10/03 03:05:07;;;;;;;12.18;2.50;;;;;;;10.61;88.57;101412.09;7399211;19;20379;-67
2022/10/03 03:08:03;;;;;;;10.75;2.00;;;;;;;10.61;88.81;101405.09;7399517;19;20035;-68
2022/10/03 03:11:02;;;;;;;15.98;3.00;;;;;;;10.64;89.02;101414.69;7402266;19;20062;-68
2022/10/03 03:14:09;;;;;;;13.68;2.90;;;;;;;10.63;89.10;101412.94;7401631;19;20014;-68
2022/10/03 03:17:07;;;;;;;13.20;2.70;;;;;;;10.62;89.09;101425.19;7401215;19;20023;-68
2022/10/03 03:20:04;;;;;;;14.43;3.05;;;;;;;10.61;89.52;101425.22;7401808;19;20010;-68
2022/10/03 03:22:47;;;;;;;18.02;3.20;;;;;;;10.56;89.73;101418.28;7402089;19;20011;-67
2022/10/03 03:25:32;;;;;;;8.20;2.50;;;;;;;10.53;89.77;101426.16;7401334;19;20031;-68
2022/10/03 03:28:18;;;;;;;15.98;2.40;;;;;;;10.54;89.93;101430.53;7399627;19;20023;-67
2022/10/03 03:30:59;;;;;;;15.75;2.58;;;;;;;10.51;89.78;101421.81;7400937;19;20031;-67
2022/10/03 03:33:44;;;;;;;12.05;2.72;;;;;;;10.53;89.84;101425.31;7398517;19;20019;-67
2022/10/03 03:36:30;;;;;;;19.42;3.30;;;;;;;10.52;90.05;101436.69;7401568;19;20358;-68
2022/10/03 03:39:13;;;;;;;19.70;3.55;;;;;;;10.52;89.91;101432.28;7398073;19;20014;-67
2022/10/03 03:42:04;;;;;;;18.70;3.58;;;;;;;10.51;89.87;101435.78;7400599;19;20401;-67
2022/10/03 03:45:08;;;;;;;19.25;3.42;;;;;;;10.50;89.92;101426.22;7401457;19;20018;-67
2022/10/03 03:47:56;;;;;;;12.83;2.33;;;;;;;10.52;89.88;101434.91;7398653;19;20035;-68
2022/10/03 03:50:35;;;;;;;16.02;2.47;;;;;;;10.51;89.95;101430.56;7401262;19;20035;-68
2022/10/03 03:53:24;;;;;;;15.10;2.50;;;;;;;10.54;89.67;101432.28;7400363;19;20488;-68
2022/10/03 03:56:10;;;;;;;12.98;2.80;;;;;;;10.51;89.63;101419.19;7401022;19;20018;-68
2022/10/03 03:58:44;;;;;;;11.40;2.63;;;;;;;10.52;89.81;101429.66;7397489;19;20014;-66
2022/10/03 04:01:32;;;;;;;16.73;3.70;;;;;;;10.52;89.75;101432.28;7401038;19;20023;-67
2022/10/03 04:04:14;;;;;;;12.18;2.95;;;;;;;10.51;89.77;101429.69;7397844;19;20022;-67
2022/10/03 04:06:57;;;;;;;10.00;3.17;;;;;;;10.48;89.72;101430.59;7400529;19;20036;-67
2022/10/03 04:09:49;;;;;;;15.57;3.40;;;;;;;10.48;89.98;101433.22;7397912;19;20018;-67
2022/10/03 04:12:33;;;;;;;18.48;3.25;;;;;;;10.44;90.11;101434.16;7400563;19;20031;-67
2022/10/03 04:15:49;;;;;;;17.42;4.10;;;;;;;10.48;90.04;101441.09;7400064;19;20495;-67
2022/10/03 04:21:21;;;;;;;13.52;3.05;;;;;;;10.47;89.78;101444.59;7399419;19;20014;-67
2022/10/03 04:24:04;;;;;;;18.30;3.25;;;;;;;10.45;90.16;101443.75;7400153;19;20031;-68
2022/10/03 04:26:50;;;;;;;12.63;3.80;;;;;;;10.44;90.16;101439.41;7399215;19;20031;-67
2022/10/03 04:29:54;;;;;;;11.90;3.00;;;;;;;10.45;89.98;101454.25;7396879;19;20018;-68
2022/10/03 04:32:36;;;;;;;13.85;3.97;;;;;;;10.45;89.99;101441.13;7395479;19;20006;-68
2022/10/03 04:35:24;;;;;;;15.98;3.47;;;;;;;10.46;90.19;101449.88;7396769;19;20520;-68
2022/10/03 04:38:02;;;;;;;15.00;3.58;;;;;;;10.46;90.11;101442.00;7397606;19;20481;-67
2022/10/03 04:40:46;;;;;;;14.88;3.20;;;;;;;10.45;90.33;101435.88;7398954;19;20497;-68
2022/10/03 04:43:26;;;;;;;12.35;3.13;;;;;;;10.45;90.09;101445.50;7399482;19;20036;-68
2022/10/03 04:46:18;;;;;;;13.02;3.22;;;;;;;10.46;90.13;101457.72;7399700;19;20011;-68
2022/10/03 04:48:55;;;;;;;16.00;3.50;;;;;;;10.46;90.19;101453.34;7396838;19;20070;-68
2022/10/03 04:51:38;;;;;;;19.20;4.13;;;;;;;10.45;90.10;101456.88;7399381;19;20031;-68
2022/10/03 04:54:20;;;;;;;14.02;2.50;;;;;;;10.45;90.05;101454.25;7398753;19;20028;-67
2022/10/03 04:56:55;;;;;;;12.40;3.95;;;;;;;10.46;89.92;101455.13;7398835;19;20014;-68
2022/10/03 04:59:35;;;;;;;13.82;3.15;;;;;;;10.47;89.93;101448.97;7396937;19;20023;-67
2022/10/03 05:02:19;;;;;;;15.88;3.97;;;;;;;10.46;89.88;101458.59;7398734;19;20086;-68
2022/10/03 05:05:15;;;;;;;14.10;3.28;;;;;;;10.47;89.93;101456.84;7398874;19;20015;-67
2022/10/03 05:07:52;;;;;;;13.43;2.97;;;;;;;10.46;89.66;101465.59;7397013;19;20031;-69
2022/10/03 05:10:49;;;;;;;12.35;3.28;;;;;;;10.46;89.71;101463.84;7398205;19;20022;-67
2022/10/03 05:13:31;;;;;;;12.10;2.95;;;;;;;10.46;89.55;101463.84;7398569;19;20379;-67
2022/10/03 05:16:06;;;;;;;10.60;3.83;;;;;;;10.46;89.63;101476.94;7394724;19;20070;-67
2022/10/03 05:18:46;;;;;;;14.07;3.83;;;;;;;10.47;89.67;101475.22;7396366;19;20031;-67
2022/10/03 05:21:22;;;;;;;14.30;2.80;;;;;;;10.44;89.91;101470.88;7395551;19;20510;-67
2022/10/03 05:24:02;;;;;;;16.25;3.42;;;;;;;10.43;89.65;101463.88;7398199;19;20035;-68
2022/10/03 05:26:44;;;;;;;10.85;2.63;;;;;;;10.40;89.92;101462.16;7397274;19;20033;-67
2022/10/03 05:29:22;;;;;;;20.52;3.63;;;;;;;10.40;90.01;101475.28;7396374;19;20037;-67
2022/10/03 05:32:05;;;;;;;18.23;3.35;;;;;;;10.39;89.90;101481.41;7397822;19;20017;-66
2022/10/03 05:35:01;;;;;;;19.10;3.20;;;;;;;10.38;90.02;101491.91;7396013;19;20032;-67
2022/10/03 05:38:07;;;;;;;24.50;4.65;;;;;;;10.37;90.11;101474.44;7396169;19;20035;-67
2022/10/03 05:40:39;;;;;;;16.35;2.85;;;;;;;10.36;90.10;101480.56;7397067;19;20376;-69
2022/10/03 05:43:26;;;;;;;10.90;2.65;;;;;;;10.36;90.14;101484.06;7395748;19;20046;-68
2022/10/03 05:46:05;;;;;;;15.15;3.10;;;;;;;10.33;90.46;101485.81;7395536;19;20010;-68
2022/10/03 05:48:47;;;;;;;11.80;2.63;;;;;;;10.37;90.19;101491.03;7395307;19;20023;-68
2022/10/03 05:51:45;;;;;;;14.20;4.13;;;;;;;10.36;90.27;101497.19;7397359;19;20030;-68
2022/10/03 05:54:44;;;;;;;13.93;2.63;;;;;;;10.35;90.33;101499.75;7396465;19;20046;-68
2022/10/03 05:57:35;;;;;;;13.00;3.13;;;;;;;10.37;90.24;101498.03;7396519;19;20022;-68
2022/10/03 06:00:17;;;;;;;16.77;2.75;;;;;;;10.35;90.08;101500.66;7396984;19;20035;-68
2022/10/03 06:03:15;;;;;;;10.77;2.70;;;;;;;10.35;90.15;101515.50;7396844;19;20019;-67
2022/10/03 06:06:01;;;;;;;16.33;3.15;;;;;;;10.35;90.18;101519.00;7395591;19;20015;-66
2022/10/03 06:09:08;;;;;;;13.18;3.10;;;;;;;10.36;90.10;101504.16;7395401;19;20014;-66
2022/10/03 06:11:57;;;;;;;14.32;2.92;;;;;;;10.35;90.19;101520.75;7395877;19;20516;-67
2022/10/03 06:15:08;;;;;;;15.50;3.38;;;;;;;10.37;90.03;101519.88;7394233;19;20510;-67
2022/10/03 06:18:05;;;;;;;8.25;2.65;;;;;;;10.35;89.82;101520.75;7394358;19;20018;-67
2022/10/03 06:21:18;;;;;;;17.10;3.40;;;;;;;10.38;89.94;101529.50;7396756;19;20367;-67
2022/10/03 06:24:10;;;;;;;11.73;2.58;;;;;;;10.37;90.04;101514.63;7394467;19;20094;-68
2022/10/03 06:27:19;;;;;;;10.13;3.13;;;;;;;10.41;89.74;101526.84;7392549;19;20041;-68
2022/10/03 06:30:10;;;;;;;9.52;2.47;;;;;;;10.42;89.52;101525.94;7392796;19;20019;-71
2022/10/03 06:33:18;;;;;;;19.85;3.75;;;;;;;10.45;89.75;101535.59;7395157;19;20029;-70
2022/10/03 06:36:24;;;;;;;15.82;3.30;;;;;;;10.48;89.46;101542.56;7395185;19;20018;-70
2022/10/03 06:39:36;;;;;;;11.75;2.72;;;;;;;10.50;89.48;101554.78;7393209;19;20018;-71
2022/10/03 06:42:45;;;;;;;16.90;3.00;;;;;;;10.53;89.37;101553.88;7395307;19;20018;-69
2022/10/03 06:46:04;;;;;;;13.57;3.17;;;;;;;10.55;89.34;101567.84;7393623;19;20040;-69
2022/10/03 06:49:16;;;;;;;13.65;3.08;;;;;;;10.57;89.33;101545.94;7393626;19;20093;-69
2022/10/03 06:52:16;;;;;;;7.68;2.63;;;;;;;10.54;89.29;101545.09;7395198;19;20032;-70
2022/10/03 06:55:15;;;;;;;16.42;3.35;;;;;;;10.61;89.21;101546.78;7394826;19;20470;-67
2022/10/03 06:58:14;;;;;;;11.73;3.10;;;;;;;10.61;89.21;101556.44;7393382;19;20481;-68
2022/10/03 07:00:59;;;;;;;20.70;3.10;;;;;;;10.61;89.33;101562.53;7393183;19;20018;-68
2022/10/03 07:03:58;;;;;;;11.40;3.75;;;;;;;10.65;89.44;101563.38;7395281;19;20018;-67
2022/10/03 07:07:00;;;;;;;18.60;3.50;;;;;;;10.71;89.03;101581.69;7394335;19;20035;-67
2022/10/03 07:09:53;;;;;;;13.25;2.88;;;;;;;10.76;87.65;101564.16;7393964;19;20019;-68
2022/10/03 07:12:57;;;;;;;12.18;2.60;;;;;;;10.81;88.26;101575.47;7394654;19;20022;-67
2022/10/03 07:15:48;;;;;;;16.48;3.33;;;;;;;10.88;88.00;101568.41;7393329;19;20161;-67
2022/10/03 07:18:54;;;;;;;13.35;2.25;;;;;;;10.97;87.96;101572.69;7392122;19;20369;-67
2022/10/03 07:22:05;;;;;;;12.07;3.28;;;;;;;11.02;87.17;101577.03;7393215;19;20023;-67
2022/10/03 07:25:09;;;;;;;12.13;2.38;;;;;;;11.07;87.38;101580.47;7394195;19;20018;-67
2022/10/03 07:27:58;;;;;;;10.07;2.73;;;;;;;11.12;86.60;101585.69;7392674;19;20022;-67
2022/10/03 07:30:28;;;;;;;12.25;2.70;;;;;;;11.17;86.58;101594.38;7392160;19;20036;-66
2022/10/03 07:33:37;;;;;;;9.85;3.25;;;;;;;11.19;86.11;101589.97;7392814;19;20414;-66
2022/10/03 07:39:38;;;;;;;14.40;3.78;;;;;;;11.23;86.23;101585.56;7396600;19;20014;-68
2022/10/03 07:42:28;;;;;;;14.65;3.30;;;;;;;11.24;84.90;101601.28;7401285;19;20414;-66
2022/10/03 07:45:23;;;;;;;18.15;4.28;;;;;;;11.28;85.45;101598.66;7398488;19;20019;-66
2022/10/03 07:48:16;;;;;;;20.27;5.28;;;;;;;11.34;85.59;101588.94;7398495;19;20014;-66
2022/10/03 07:51:01;;;;;;;14.55;3.80;;;;;;;11.43;84.97;101595.00;7400930;19;20023;-66
2022/10/03 07:53:55;;;;;;;15.20;3.75;;;;;;;11.49;83.96;101594.91;7398147;19;20015;-66
2022/10/03 07:56:55;;;;;;;13.30;3.70;;;;;;;11.53;83.41;101594.84;7400208;19;20031;-67
2022/10/03 07:59:58;;;;;;;15.90;4.80;;;;;;;11.58;82.98;101595.66;7395657;19;20018;-66
2022/10/03 08:02:59;;;;;;;10.90;2.80;;;;;;;11.63;83.34;101594.75;7400957;19;20082;-66
2022/10/03 08:05:45;;;;;;;11.50;3.22;;;;;;;11.68;82.96;101606.06;7396462;19;20086;-66
2022/10/03 08:08:49;;;;;;;9.80;2.88;;;;;;;11.71;82.60;101611.28;7397734;19;20094;-66
2022/10/03 08:11:43;;;;;;;11.70;3.07;;;;;;;11.72;82.26;101623.53;7398173;19;20033;-67
2022/10/03 08:14:20;;;;;;;11.73;3.22;;;;;;;11.76;82.84;101614.72;7400403;19;20078;-67
2022/10/03 08:17:13;;;;;;;14.82;3.00;;;;;;;11.80;81.94;101616.41;7399823;19;20018;-66
2022/10/03 08:20:04;;;;;;;15.80;5.25;;;;;;;11.87;82.40;101625.97;7398242;19;20509;-66
2022/10/03 08:22:44;;;;;;;19.30;6.53;;;;;;;11.96;81.35;101626.78;7399493;19;20018;-66
2022/10/03 08:25:29;;;;;;;17.38;5.32;;;;;;;12.00;80.16;101636.34;7397582;19;20019;-66
2022/10/03 08:28:21;;;;;;;9.45;2.75;;;;;;;12.01;79.82;101620.56;7398104;19;20033;-66
2022/10/03 08:31:15;;;;;;;14.30;2.60;;;;;;;12.06;80.42;101633.66;7397550;19;20058;-69
2022/10/03 08:34:20;;;;;;;14.75;3.13;;;;;;;12.05;79.05;101621.38;7398101;19;20018;-67
2022/10/03 08:37:16;;;;;;;14.63;3.25;;;;;;;12.09;78.88;101630.09;7398815;19;20018;-67
2022/10/03 08:40:06;;;;;;;13.85;3.88;;;;;;;12.15;78.67;101627.41;7398319;19;20023;-66
2022/10/03 08:43:07;;;;;;;16.60;5.10;;;;;;;12.21;77.56;101629.94;7397831;19;20029;-66
2022/10/03 08:45:49;;;;;;;11.93;3.83;;;;;;;12.21;76.66;101633.44;7398586;19;20014;-66
2022/10/03 08:48:51;;;;;;;14.30;2.80;;;;;;;12.26;76.47;101646.53;7396896;19;20515;-66
2022/10/03 08:51:50;;;;;;;11.27;2.33;;;;;;;12.29;77.14;101635.94;7396993;19;20011;-67
2022/10/03 08:55:04;;;;;;;10.90;2.20;;;;;;;12.31;75.00;101651.69;7398497;19;20484;-67
2022/10/03 08:58:12;;;;;;;14.73;2.40;;;;;;;12.36;76.40;101642.00;7397285;19;20043;-67
2022/10/03 09:01:04;;;;;;;11.15;2.45;;;;;;;12.42;76.81;101639.25;7396152;19;20391;-67
2022/10/03 09:04:18;;;;;;;14.23;2.17;;;;;;;12.45;75.44;101655.03;7398236;19;20038;-67
2022/10/03 09:07:00;;;;;;;14.27;3.60;;;;;;;12.49;76.39;101648.81;7393043;19;20094;-68
2022/10/03 09:10:05;;;;;;;13.82;2.72;;;;;;;12.52;75.12;101646.16;7397427;19;20039;-68
2022/10/03 09:12:45;;;;;;;;;;;;;;;12.54;74.30;101665.41;7397418;19;20019;-67
2022/10/03 09:15:44;;;;;;;9.07;1.85;;;;;;;12.55;74.12;101659.25;7395654;19;19927;-67
2022/10/03 09:18:45;;;;;;;13.40;2.30;;;;;;;12.62;75.21;101653.88;7395518;19;20031;-67
2022/10/03 09:21:41;;;;;;;16.42;3.28;;;;;;;12.68;75.19;101643.25;7397777;19;20027;-67
2022/10/03 09:24:37;;;;;;;11.30;2.20;;;;;;;12.71;74.76;101644.09;7398319;19;20031;-67
2022/10/03 09:27:38;;;;;;;12.68;2.55;;;;;;;12.73;73.14;101646.69;7396747;19;20018;-67
2022/10/03 09:30:17;;;;;;;8.55;1.83;;;;;;;12.77;74.11;101637.84;7395542;19;20028;-67
2022/10/03 09:33:40;;;;;;;11.52;2.53;;;;;;;12.90;73.77;101649.03;7395422;19;20022;-67
2022/10/03 09:36:33;;;;;;;11.88;2.72;;;;;;;13.05;74.01;101645.25;7397304;19;20010;-67
2022/10/03 09:39:33;;;;;;;9.77;2.35;;;;;;;13.07;70.66;101680.38;7395655;19;20018;-66
2022/10/03 09:42:44;;;;;;;9.60;1.98;;;;;;;13.00;68.50;101661.16;7395498;19;20018;-66
2022/10/03 09:45:37;;;;;;;12.30;2.38;;;;;;;12.97;68.75;101641.91;7397155;19;20014;-65
2022/10/03 09:48:31;;;;;;;8.95;1.92;;;;;;;12.96;68.73;101648.06;7395853;19;20018;-67
2022/10/03 09:51:22;;;;;;;9.73;1.90;;;;;;;12.97;68.39;101650.66;7395144;19;20011;-66
2022/10/03 09:54:27;;;;;;;9.50;2.22;;;;;;;13.07;69.46;101634.69;7396605;19;20022;-68
2022/10/03 09:57:20;;;;;;;12.88;2.25;;;;;;;13.14;69.58;101647.75;7394401;19;20082;-68
2022/10/03 10:00:18;;;;;;;11.43;2.58;;;;;;;13.18;68.95;101638.88;7395332;19;20010;-66
2022/10/03 10:03:16;;;;;;;8.07;1.60;;;;;;;13.22;67.92;101644.09;7394031;19;20048;-66
2022/10/03 10:06:29;;;;;;;12.50;2.65;;;;;;;13.32;67.60;101645.66;7396818;19;20022;-67
2022/10/03 10:09:33;;;;;;;12.20;2.33;;;;;;;13.41;67.80;101644.63;7393897;19;20014;-67
2022/10/03 10:12:32;;;;;;;8.48;1.77;;;;;;;13.47;68.76;101644.53;7396346;19;20026;-68
2022/10/03 10:15:22;;;;;;;10.30;2.38;;;;;;;13.53;69.51;101641.78;7396583;19;20027;-66
2022/10/03 10:18:26;;;;;;;10.80;2.35;;;;;;;13.57;68.53;101651.34;7394886;19;20501;-67
2022/10/03 10:21:39;;;;;;;8.82;2.08;;;;;;;13.61;67.89;101650.41;7394989;19;20029;-69
2022/10/03 10:24:38;;;;;;;14.13;2.08;;;;;;;13.63;68.12;101650.38;7393903;19;20035;-68
2022/10/03 10:27:41;;;;;;;11.35;2.08;;;;;;;13.64;68.08;101650.34;7394185;19;20035;-68
2022/10/03 10:30:23;;;;;;;9.13;2.35;;;;;;;13.66;67.29;101639.75;7393017;19;20481;-69
2022/10/03 10:33:23;;;;;;;10.25;2.25;;;;;;;13.72;67.09;101647.53;7394601;19;20516;-67
2022/10/03 10:36:26;;;;;;;12.90;2.08;;;;;;;13.77;66.92;101653.59;7395560;19;20019;-66
2022/10/03 10:39:30;;;;;;;14.82;1.80;;;;;;;13.87;67.23;101642.88;7393165;19;20018;-66
2022/10/03 10:42:31;;;;;;;14.87;2.13;;;;;;;13.94;67.01;101655.00;7393775;19;20027;-67
2022/10/03 10:45:45;;;;;;;14.10;1.80;;;;;;;14.00;65.93;101649.59;7393901;19;20047;-66
2022/10/03 10:48:46;;;;;;;10.15;1.95;;;;;;;14.01;66.19;101643.41;7395541;19;20018;-68
2022/10/03 10:51:52;;;;;;;9.35;1.30;;;;;;;14.02;66.68;101642.53;7392224;19;20504;-65
2022/10/03 10:55:03;;;;;;;9.38;1.60;;;;;;;14.02;66.41;101647.81;7393227;19;20359;-66
2022/10/03 10:58:28;;;;;;;11.50;2.10;;;;;;;14.07;67.12;101640.66;7393921;19;20489;-66
2022/10/03 11:01:27;;;;;;;8.98;2.92;;;;;;;14.15;67.53;101649.28;7394721;19;20027;-66
2022/10/03 11:04:57;;;;;;;10.73;2.17;;;;;;;14.21;67.33;101655.31;7394362;19;20031;-67
2022/10/03 11:08:03;;;;;;;7.90;1.52;;;;;;;14.28;67.61;101664.81;7392131;19;20010;-66
2022/10/03 11:10:40;;;;;;;5.85;1.55;;;;;;;14.28;67.79;101648.97;7393060;19;20032;-66
2022/10/03 11:13:56;;;;;;;7.80;1.70;;;;;;;14.19;68.07;101650.06;7394068;19;20509;-66
2022/10/03 11:17:06;;;;;;;13.65;2.30;;;;;;;14.05;70.34;101646.88;7402027;19;20014;-67
2022/10/03 11:20:13;;;;;;;7.18;1.63;;;;;;;13.93;71.41;101646.22;7398827;19;20418;-66
2022/10/03 11:23:11;;;;;;;8.32;1.75;;;;;;;13.82;72.06;101648.22;7398937;19;20022;-66
2022/10/03 11:26:19;;;;;;;8.00;1.75;;;;;;;13.79;72.77;101654.44;7399118;19;20074;-66
2022/10/03 11:29:22;;;;;;;8.00;2.10;;;;;;;13.82;73.00;101656.13;7397109;19;20015;-65
2022/10/03 11:32:20;;;;;;;11.18;1.30;;;;;;;13.86;73.38;101655.16;7401078;19;20010;-66
2022/10/03 11:35:33;;;;;;;7.93;1.75;;;;;;;13.88;74.47;101653.38;7398189;19;20477;-67
2022/10/03 11:38:12;;;;;;;10.63;1.85;;;;;;;13.92;74.18;101659.47;7398789;19;20027;-66
2022/10/03 11:40:57;;;;;;;8.30;1.58;;;;;;;13.89;74.97;101654.22;7401318;19;20022;-68
2022/10/03 11:43:53;;;;;;;5.60;1.40;;;;;;;13.87;74.70;101656.06;7400321;19;20490;-66
2022/10/03 11:46:31;;;;;;;10.93;1.50;;;;;;;13.84;75.01;101652.56;7400649;19;20018;-66
2022/10/03 11:49:04;;;;;;;6.93;1.50;;;;;;;13.88;74.84;101647.25;7398092;19;20020;-66
2022/10/03 11:51:45;;;;;;;10.25;1.67;;;;;;;13.90;74.98;101641.03;7398511;19;20015;-66
2022/10/03 11:54:24;;;;;;;7.75;1.38;;;;;;;13.94;74.64;101640.06;7400968;19;20037;-65
2022/10/03 11:57:01;;;;;;;9.20;1.90;;;;;;;13.99;74.46;101637.34;7399686;19;20037;-66
2022/10/03 11:59:40;;;;;;;6.72;2.05;;;;;;;14.04;74.13;101637.22;7398313;19;20035;-65
2022/10/03 12:02:16;;;;;;;9.32;1.83;;;;;;;14.09;73.06;101646.78;7400271;19;20007;-66
2022/10/03 12:05:00;;;;;;;8.00;1.58;;;;;;;14.17;73.78;101642.19;7397527;19;20014;-66
2022/10/03 12:10:38;;;;;;;12.50;4.60;;;;;;;14.34;71.15;101627.72;7399121;19;20013;-66
2022/10/03 12:13:15;;;;;;;9.38;2.95;;;;;;;14.41;71.89;101626.69;7400531;19;20025;-66
2022/10/03 12:15:47;;;;;;;9.93;2.03;;;;;;;14.48;71.60;101625.66;7400073;19;20090;-66
2022/10/03 12:18:20;;;;;;;10.02;2.80;;;;;;;14.51;70.53;101629.97;7397107;19;20094;-66
2022/10/03 12:21:10;;;;;;;9.35;2.25;;;;;;;14.50;68.91;101623.81;7400413;19;20039;-66
2022/10/03 12:23:58;;;;;;;7.28;2.15;;;;;;;14.53;69.80;101629.94;7397595;19;20023;-66
2022/10/03 12:26:42;;;;;;;10.13;2.65;;;;;;;14.53;71.28;101625.50;7397231;19;20106;-66
2022/10/03 12:29:14;;;;;;;5.88;1.67;;;;;;;14.42;71.83;101639.00;7397397;19;20022;-66
2022/10/03 12:31:47;;;;;;;6.13;1.92;;;;;;;14.37;72.29;101632.94;7397464;19;20049;-66
2022/10/03 12:34:41;;;;;;;15.77;6.72;;;;;;;14.33;73.00;101631.25;7397557;19;20087;-66
2022/10/03 12:37:50;;;;;;;7.65;2.60;;;;;;;14.33;73.74;101647.09;7397695;19;20031;-65
2022/10/03 12:40:28;;;;;;;6.35;2.25;;;;;;;14.38;73.71;101633.81;7398864;19;20421;-65
2022/10/03 12:43:11;;;;;;;7.93;2.33;;;;;;;14.44;73.15;101650.38;7399346;19;20056;-65
2022/10/03 12:45:44;;;;;;;9.63;2.60;;;;;;;14.55;72.55;101641.34;7399487;19;20031;-66
2022/10/03 12:48:33;;;;;;;7.10;1.75;;;;;;;14.66;72.58;101623.50;7397157;19;20485;-66
2022/10/03 12:51:09;;;;;;;7.88;1.63;;;;;;;14.80;72.26;101629.28;7396192;19;20485;-65
2022/10/03 12:53:48;;;;;;;6.80;2.22;;;;;;;14.93;71.10;101615.78;7399119;19;20031;-66
2022/10/03 12:56:27;;;;;;;5.57;1.30;;;;;;;14.98;68.75;101620.00;7399005;19;20018;-66
2022/10/03 12:59:09;;;;;;;8.57;1.30;;;;;;;15.02;69.92;101619.94;7395802;19;20015;-66
2022/10/03 13:01:59;;;;;;;6.53;1.70;;;;;;;15.01;68.71;101645.50;7398691;19;20031;-66
2022/10/03 13:04:41;;;;;;;8.88;1.55;;;;;;;14.98;68.92;101625.28;7398637;19;20099;-65
2022/10/03 13:07:26;;;;;;;6.10;1.50;;;;;;;14.93;68.87;101628.97;7397114;19;20035;-66
2022/10/03 13:10:04;;;;;;;7.85;1.52;;;;;;;14.91;68.88;101630.78;7398348;19;20094;-65
2022/10/03 13:12:48;;;;;;;6.95;1.80;;;;;;;14.84;68.55;101630.09;7398271;19;20083;-66
2022/10/03 13:15:42;;;;;;;9.73;2.42;;;;;;;14.80;68.98;101629.28;7395835;19;20031;-68
2022/10/03 13:18:23;;;;;;;7.95;1.23;;;;;;;14.78;68.50;101632.88;7396411;19;20019;-65